createdAt,value
2022-11-04T00:02:04.294Z,7.67
2022-11-04T00:12:27.067Z,9.77
2022-11-04T00:22:52.731Z,9.40
2022-11-04T00:33:15.615Z,9.53
2022-11-04T00:43:17.788Z,10.23
2022-11-04T00:53:19.715Z,10.20
2022-11-04T01:03:23.944Z,9.10
2022-11-04T01:13:28.255Z,10.30
2022-11-04T01:23:30.321Z,11.47
2022-11-04T01:33:37.174Z,9.90
2022-11-04T01:43:48.642Z,9.20
2022-11-04T01:53:51.463Z,10.57
2022-11-04T02:04:20.229Z,9.37
2022-11-04T02:14:22.286Z,10.90
2022-11-04T02:25:05.759Z,8.07
2022-11-04T02:35:51.123Z,8.40
2022-11-04T02:46:01.911Z,8.70
2022-11-04T02:56:04.719Z,9.40
2022-11-04T03:06:10.692Z,8.60
2022-11-04T03:16:18.296Z,7.97
2022-11-04T03:26:45.338Z,8.53
2022-11-04T03:36:47.511Z,7.77
2022-11-04T03:46:51.628Z,9.83
2022-11-04T03:57:20.478Z,7.63
2022-11-04T04:07:43.745Z,7.87
2022-11-04T04:17:55.613Z,7.87
2022-11-04T04:28:00.328Z,7.30
2022-11-04T04:38:23.847Z,8.77
2022-11-04T04:48:26.097Z,7.30
2022-11-04T04:58:28.084Z,6.90
2022-11-04T05:08:35.459Z,7.70
2022-11-04T05:18:41.167Z,8.03
2022-11-04T05:28:43.174Z,7.83
2022-11-04T05:38:51.341Z,8.00
2022-11-04T05:49:02.948Z,7.70
2022-11-04T05:59:04.915Z,6.60
2022-11-04T06:09:11.725Z,7.30
2022-11-04T06:19:18.571Z,7.33
2022-11-04T06:29:20.808Z,6.87
2022-11-04T06:39:22.825Z,8.03
2022-11-04T06:49:30.135Z,6.70
2022-11-04T06:59:32.088Z,7.63
2022-11-04T07:09:36.417Z,7.00
2022-11-04T07:19:42.935Z,6.90
2022-11-04T07:29:44.910Z,7.07
2022-11-04T07:39:49.350Z,7.43
2022-11-04T07:49:51.533Z,7.27
2022-11-04T07:59:55.986Z,8.03
2022-11-04T08:10:03.322Z,7.20
2022-11-04T08:20:07.559Z,7.70
2022-11-04T08:30:11.562Z,8.90
2022-11-04T08:40:18.388Z,8.10
2022-11-04T08:50:28.080Z,8.80
2022-11-04T09:00:32.421Z,10.33
2022-11-04T09:10:35.782Z,8.13
2022-11-04T09:20:42.401Z,7.80
2022-11-04T09:30:49.970Z,9.15
2022-11-04T09:40:57.025Z,7.60
2022-11-04T09:51:04.057Z,8.53
2022-11-04T10:01:19.544Z,8.00
2022-11-04T10:11:45.944Z,8.20
2022-11-04T10:22:06.788Z,8.60
2022-11-04T10:32:22.788Z,7.87
2022-11-04T10:42:34.823Z,8.37
2022-11-04T10:52:40.337Z,7.90
2022-11-04T11:02:47.694Z,6.00
2022-11-04T11:13:03.263Z,7.90
2022-11-04T11:23:33.653Z,7.43
2022-11-04T11:33:42.301Z,7.75
2022-11-04T11:43:54.168Z,7.37
2022-11-04T11:54:33.968Z,7.18
2022-11-04T12:15:31.385Z,6.72
2022-11-04T12:26:02.900Z,7.60
2022-11-04T12:36:28.513Z,7.45
2022-11-04T12:46:55.773Z,6.07
2022-11-04T12:57:12.221Z,6.20
2022-11-04T13:07:50.061Z,6.50
2022-11-04T13:18:00.126Z,6.28
2022-11-04T13:28:02.684Z,6.72
2022-11-04T13:38:08.950Z,6.28
2022-11-04T13:48:14.440Z,6.05
2022-11-04T13:58:28.005Z,6.53
2022-11-04T14:08:32.261Z,6.20
2022-11-04T14:18:39.493Z,6.43
2022-11-04T14:28:45.944Z,6.10
2022-11-04T14:39:16.774Z,6.20
2022-11-04T14:49:28.196Z,6.80
2022-11-04T14:59:32.683Z,6.40
2022-11-04T15:10:06.801Z,7.20
2022-11-04T15:20:24.568Z,7.73
2022-11-04T15:30:34.068Z,7.20
2022-11-04T15:40:38.271Z,7.90
2022-11-04T15:50:40.493Z,7.70
2022-11-04T16:00:44.311Z,7.35
2022-11-04T16:10:46.826Z,8.20
2022-11-04T16:20:55.634Z,9.10
2022-11-04T16:31:13.542Z,7.17
2022-11-04T16:41:15.812Z,8.20
2022-11-04T16:51:21.668Z,9.48
2022-11-04T17:01:24.308Z,8.70
2022-11-04T17:11:30.785Z,10.07
2022-11-04T17:21:35.371Z,9.63
2022-11-04T17:31:41.421Z,9.77
2022-11-04T17:42:04.730Z,9.23
2022-11-04T17:52:09.646Z,9.63
2022-11-04T18:02:14.979Z,9.63
2022-11-04T18:12:36.609Z,10.90
2022-11-04T18:22:42.279Z,9.60
2022-11-04T18:32:47.581Z,10.37
2022-11-04T18:43:08.843Z,13.43
2022-11-04T18:53:11.594Z,10.37
2022-11-04T19:03:13.837Z,9.87
2022-11-04T19:13:18.647Z,10.23
2022-11-04T19:23:22.855Z,10.40
2022-11-04T19:33:31.050Z,10.00
2022-11-04T19:43:33.303Z,15.77
2022-11-04T19:53:35.262Z,14.73
2022-11-04T20:03:39.402Z,9.33
2022-11-04T20:13:44.911Z,10.57
2022-11-04T20:23:47.859Z,9.30
2022-11-04T20:33:53.129Z,9.93
2022-11-04T20:43:59.980Z,9.47
2022-11-04T20:54:06.606Z,8.87
2022-11-04T21:04:15.130Z,8.90
2022-11-04T21:14:19.716Z,8.53
2022-11-04T21:24:23.986Z,9.83
2022-11-04T21:34:25.998Z,9.30
2022-11-04T21:44:28.522Z,7.30
2022-11-04T21:54:32.839Z,9.40
2022-11-04T22:04:37.569Z,9.57
2022-11-04T22:14:39.675Z,9.37
2022-11-04T22:24:41.833Z,10.10
2022-11-04T22:34:51.904Z,9.73
2022-11-04T22:44:58.807Z,9.90
2022-11-04T22:55:05.199Z,9.60
2022-11-04T23:05:07.654Z,8.83
2022-11-04T23:15:28.771Z,11.20
2022-11-04T23:25:32.294Z,9.87
2022-11-04T23:36:04.549Z,10.17
2022-11-04T23:46:25.069Z,10.47
2022-11-04T23:56:45.635Z,11.80
